地図

経路データ

SID SEASON NUMBER BASIN SUBBASIN NAME ISO_TIME NATURE LAT LON WMO_WIND WMO_PRES WMO_AGENCY TRACK_TYPE DIST2LAND LANDFALL IFLAG USA_AGENCY USA_ATCF_ID USA_LAT USA_LON USA_RECORD USA_STATUS USA_WIND USA_PRES USA_SSHS USA_R34_NE USA_R34_SE USA_R34_SW USA_R34_NW USA_R50_NE USA_R50_SE USA_R50_SW USA_R50_NW USA_R64_NE USA_R64_SE USA_R64_SW USA_R64_NW USA_POCI USA_ROCI USA_RMW USA_EYE TOKYO_LAT TOKYO_LON TOKYO_GRADE TOKYO_WIND TOKYO_PRES TOKYO_R50_DIR TOKYO_R50_LONG TOKYO_R50_SHORT TOKYO_R30_DIR TOKYO_R30_LONG TOKYO_R30_SHORT TOKYO_LAND CMA_LAT CMA_LON CMA_CAT CMA_WIND CMA_PRES HKO_LAT HKO_LON HKO_CAT HKO_WIND HKO_PRES NEWDELHI_LAT NEWDELHI_LON NEWDELHI_GRADE NEWDELHI_WIND NEWDELHI_PRES NEWDELHI_CI NEWDELHI_DP NEWDELHI_POCI REUNION_LAT REUNION_LON REUNION_TYPE REUNION_WIND REUNION_PRES REUNION_TNUM REUNION_CI REUNION_RMW REUNION_R34_NE REUNION_R34_SE REUNION_R34_SW REUNION_R34_NW REUNION_R50_NE REUNION_R50_SE REUNION_R50_SW REUNION_R50_NW REUNION_R64_NE REUNION_R64_SE REUNION_R64_SW REUNION_R64_NW BOM_LAT BOM_LON BOM_TYPE BOM_WIND BOM_PRES BOM_TNUM BOM_CI BOM_RMW BOM_R34_NE BOM_R34_SE BOM_R34_SW BOM_R34_NW BOM_R50_NE BOM_R50_SE BOM_R50_SW BOM_R50_NW BOM_R64_NE BOM_R64_SE BOM_R64_SW BOM_R64_NW BOM_ROCI BOM_POCI BOM_EYE BOM_POS_METHOD BOM_PRES_METHOD NADI_LAT NADI_LON NADI_CAT NADI_WIND NADI_PRES WELLINGTON_LAT WELLINGTON_LON WELLINGTON_WIND WELLINGTON_PRES DS824_LAT DS824_LON DS824_STAGE DS824_WIND DS824_PRES TD9636_LAT TD9636_LON TD9636_STAGE TD9636_WIND TD9636_PRES TD9635_LAT TD9635_LON TD9635_WIND TD9635_PRES TD9635_ROCI NEUMANN_LAT NEUMANN_LON NEUMANN_CLASS NEUMANN_WIND NEUMANN_PRES MLC_LAT MLC_LON MLC_CLASS MLC_WIND MLC_PRES USA_GUST BOM_GUST BOM_GUST_PER REUNION_GUST REUNION_GUST_PER USA_SEAHGT USA_SEARAD_NE USA_SEARAD_SE USA_SEARAD_SW USA_SEARAD_NW STORM_SPEED STORM_DIR
1974195N29273 1974 58 NA GM NOT_NAMED 1974-07-13 12:00:00 TS 28.5000 -87.0000 20 hurdat_atl main 201 200 O_____________ hurdat_atl AL041974 28.5000 -87.0000 TD 20 -1 4 218
1974195N29273 1974 58 NA GM NOT_NAMED 1974-07-13 15:00:00 TS 28.3375 -87.1401 main 205 193 P_____________ AL041974 28.3375 -87.1401 TD 20 -1 4 221
1974195N29273 1974 58 NA GM NOT_NAMED 1974-07-13 18:00:00 TS 28.2000 -87.3000 20 hurdat_atl main 193 183 O_____________ hurdat_atl AL041974 28.2000 -87.3000 TD 20 -1 4 233
1974195N29273 1974 58 NA GM NOT_NAMED 1974-07-13 21:00:00 TS 28.1000 -87.4924 main 183 176 P_____________ AL041974 28.1000 -87.4924 TD 22 -1 4 241
1974195N29273 1974 58 NA GM NOT_NAMED 1974-07-14 00:00:00 TS 28.0000 -87.7000 25 hurdat_atl main 176 169 O_____________ hurdat_atl AL041974 28.0000 -87.7000 TD 25 -1 4 235
1974195N29273 1974 58 NA GM NOT_NAMED 1974-07-14 03:00:00 TS 27.8500 -87.9000 main 178 171 P_____________ AL041974 27.8500 -87.9000 TD 25 -1 5 230
1974195N29273 1974 58 NA GM NOT_NAMED 1974-07-14 06:00:00 TS 27.7000 -88.1000 25 hurdat_atl main 174 169 O_____________ hurdat_atl AL041974 27.7000 -88.1000 TD 25 -1 4 232
1974195N29273 1974 58 NA GM NOT_NAMED 1974-07-14 09:00:00 TS 27.5923 -88.2774 main 174 170 P_____________ AL041974 27.5923 -88.2774 TD 25 -1 4 241
1974195N29273 1974 58 NA GM NOT_NAMED 1974-07-14 12:00:00 TS 27.5000 -88.5000 25 hurdat_atl main 177 171 O_____________ hurdat_atl AL041974 27.5000 -88.5000 TD 25 -1 5 250
1974195N29273 1974 58 NA GM NOT_NAMED 1974-07-14 15:00:00 TS 27.4076 -88.8350 main 181 178 P_____________ AL041974 27.4076 -88.8350 TD 25 -1 7 252
1974195N29273 1974 58 NA GM NOT_NAMED 1974-07-14 18:00:00 TS 27.3000 -89.2000 25 hurdat_atl main 190 190 O_____________ hurdat_atl AL041974 27.3000 -89.2000 TD 25 -1 7 247
1974195N29273 1974 58 NA GM NOT_NAMED 1974-07-14 21:00:00 TS 27.1499 -89.5075 main 215 215 P_____________ AL041974 27.1499 -89.5075 TD 25 -1 6 241
1974195N29273 1974 58 NA GM NOT_NAMED 1974-07-15 00:00:00 TS 27.0000 -89.8000 25 hurdat_atl main 233 233 O_____________ hurdat_atl AL041974 27.0000 -89.8000 TD 25 -1 6 245
1974195N29273 1974 58 NA GM NOT_NAMED 1974-07-15 03:00:00 TS 26.8999 -90.0998 main 245 245 P_____________ AL041974 26.8999 -90.0998 TD 25 -1 6 250
1974195N29273 1974 58 NA GM NOT_NAMED 1974-07-15 06:00:00 TS 26.8000 -90.4000 25 hurdat_atl main 257 256 O_____________ hurdat_atl AL041974 26.8000 -90.4000 TD 25 -1 6 246
1974195N29273 1974 58 NA GM NOT_NAMED 1974-07-15 09:00:00 TS 26.6574 -90.7000 main 268 268 P_____________ AL041974 26.6574 -90.7000 TD 27 -1 6 241
1974195N29273 1974 58 NA GM NOT_NAMED 1974-07-15 12:00:00 TS 26.5000 -91.0000 30 hurdat_atl main 290 290 O_____________ hurdat_atl AL041974 26.5000 -91.0000 TD 30 -1 6 240
1974195N29273 1974 58 NA GM NOT_NAMED 1974-07-15 15:00:00 TS 26.3424 -91.3000 main 315 315 P_____________ AL041974 26.3424 -91.3000 TD 30 -1 6 241
1974195N29273 1974 58 NA GM NOT_NAMED 1974-07-15 18:00:00 TS 26.2000 -91.6000 30 hurdat_atl main 331 331 O_____________ hurdat_atl AL041974 26.2000 -91.6000 TD 30 -1 6 246
1974195N29273 1974 58 NA GM NOT_NAMED 1974-07-15 21:00:00 TS 26.0999 -91.8998 main 349 349 P_____________ AL041974 26.0999 -91.8998 TD 30 -1 6 250
1974195N29273 1974 58 NA GM NOT_NAMED 1974-07-16 00:00:00 TS 26.0000 -92.2000 30 hurdat_atl main 369 369 O_____________ hurdat_atl AL041974 26.0000 -92.2000 TD 30 -1 6 245
1974195N29273 1974 58 NA GM NOT_NAMED 1974-07-16 03:00:00 TS 25.8499 -92.4925 main 400 400 P_____________ AL041974 25.8499 -92.4925 TD 30 -1 6 241
1974195N29273 1974 58 NA GM NOT_NAMED 1974-07-16 06:00:00 TS 25.7000 -92.8000 30 hurdat_atl main 423 394 O_____________ hurdat_atl AL041974 25.7000 -92.8000 TD 30 -1 7 242
1974195N29273 1974 58 NA GM NOT_NAMED 1974-07-16 09:00:00 TS 25.5252 -93.1803 main 394 364 P_____________ AL041974 25.5252 -93.1803 TD 30 -1 7 252
1974195N29273 1974 58 NA GM NOT_NAMED 1974-07-16 12:00:00 TS 25.5000 -93.5000 30 hurdat_atl main 364 350 O_____________ hurdat_atl AL041974 25.5000 -93.5000 TD 30 -1 5 301
1974195N29273 1974 58 NA GM NOT_NAMED 1974-07-16 15:00:00 TS 25.7749 -93.6449 main 350 339 P_____________ AL041974 25.7749 -93.6449 TD 30 -1 7 345
1974195N29273 1974 58 NA GM NOT_NAMED 1974-07-16 18:00:00 TS 26.2000 -93.7000 30 hurdat_atl main 339 301 O_____________ hurdat_atl AL041974 26.2000 -93.7000 TD 30 -1 8 353
1974195N29273 1974 58 NA GM NOT_NAMED 1974-07-16 21:00:00 TS 26.5925 -93.7576 main 301 262 P_____________ AL041974 26.5925 -93.7576 TD 30 -1 8 354
1974195N29273 1974 58 NA GM NOT_NAMED 1974-07-17 00:00:00 TS 27.0000 -93.8000 30 hurdat_atl main 262 225 O_____________ hurdat_atl AL041974 27.0000 -93.8000 TD 30 -1 8 355
1974195N29273 1974 58 NA GM NOT_NAMED 1974-07-17 03:00:00 TS 27.4075 -93.8500 main 219 184 P_____________ AL041974 27.4075 -93.8500 TD 30 -1 8 354
1974195N29273 1974 58 NA GM NOT_NAMED 1974-07-17 06:00:00 TS 27.8000 -93.9000 30 hurdat_atl main 184 161 O_____________ hurdat_atl AL041974 27.8000 -93.9000 TD 30 -1 7 356
1974195N29273 1974 58 NA GM NOT_NAMED 1974-07-17 09:00:00 TS 28.1349 -93.9205 main 161 125 P_____________ AL041974 28.1349 -93.9205 TD 27 -1 7 353
1974195N29273 1974 58 NA GM NOT_NAMED 1974-07-17 12:00:00 TS 28.5000 -94.0000 25 hurdat_atl main 125 77 O_____________ hurdat_atl AL041974 28.5000 -94.0000 TD 25 -1 9 343
1974195N29273 1974 58 NA GM NOT_NAMED 1974-07-17 15:00:00 TS 28.9677 -94.2091 main 67 9 P_____________ AL041974 28.9677 -94.2091 TD -1 11 336
1974195N29273 1974 58 NA GM NOT_NAMED 1974-07-17 18:00:00 TS 29.5000 -94.5000 hurdat_atl main 9 O_____________ hurdat_atl AL041974 29.5000 -94.5000 TD -1 12 335

IBTrACS Databaseについて

本データベースは、米国NOAAが公開する1842年以降の世界の熱帯低気圧のベストトラックデータアーカイブInternational Best Track Archive for Climate Stewardship (IBTrACS)を、ウェブで閲覧しやすい形式に変換したものです。

最終更新日:2021-10-21